International TAF

Brunei, China, Hong Kong, Malaysia, Philippines, Taiwan

The availability of aerodrome forecasts from overseas locations is dependent on the regular international exchange of data. Some locations may at times be absent. If this problem persists, please advise webav@bom.gov.au

 back to top

ZSPD 05/02/2023 UTC

TAF ZSPD 052107Z 0600/0624 06004MPS 4000 -RA BR BKN008 TX11/0606Z
TN07/0621Z TEMPO 0600/0604 2000 BKN003

WIDD 05/02/2023 UTC

TAF WIDD 052300Z 0600/0624 34008KT 9999 SCT014
TEMPO 0602/0606 5000 RA BKN013

WAMM 05/02/2023 UTC

TAF WAMM 052300Z 0600/0706 36009KT 9999 SCT020
PROB30 TEMPO 0604/0607 5000 RA FEW018CB
BECMG 0611/612 VRB03KT

WBSB 05/02/2023 UTC

TAF WBSB 052300Z 0600/0706 20003KT 9999 FEW014 FEW015CB
BECMG 0603/0605 34010KT SCT015 FEW016CB
TEMPO 0604/0606 7000 SHRA TSRA

WBKK 05/02/2023 UTC

TAF WBKK 052300Z 0600/0700 11005KT 9999 FEW014
BECMG 0603/0605 33005KT
TEMPO 0606/0610 5000 TSRA FEW010 FEW016CB SCT030

WBGG 05/02/2023 UTC

TAF WBGG 052300Z 0600/0700 VRB03KT 9999 SCT020
TEMPO 0600/0602 5000 BR FEW000
TEMPO 0608/0612 5000 TSRA FEW015CB

VHHH 05/02/2023 UTC

TAF VHHH 052300Z 0600/0706 VRB05KT 7000 FEW012 SCT025 TX23/0606Z
TX25/0706Z TN19/0623Z BECMG 0603/0605 29010KT TEMPO 0603/0608
4000 HZ BECMG 0608/0610 10010KT TEMPO 0618/0703 VRB05KT

VMMC 05/02/2023 UTC

TAF VMMC 052300Z 0600/0706 09008KT 8000 FEW015 SCT030
TEMPO 0600/0604 02010KT 4000 BR
TEMPO 0618/0702 02010KT 2500 BR

ZGSZ 05/02/2023 UTC

TAF ZGSZ 052122Z 0600/0624 34003MPS 6000 BKN040 TX23/0606Z
TN17/0622Z BECMG 0604/0606 18004MPS BECMG 0610/0612 10003MPS BECMG
0620/0622
04004MPS

RCTP 05/02/2023 UTC

TAF RCTP 052300Z 0600/0706 01007KT 9000 FEW005 BKN007
TEMPO 0600/0606 33005KT 3500 RA BR FEW002 BKN004
BECMG 0606/0608 FEW016 BKN032
TEMPO 0608/0614 FEW010 BKN017
BECMG 0611/0613 05010KT 9999
TEMPO 0618/0624 FEW007 BKN014

RCKH 05/02/2023 UTC

TAF RCKH 052300Z 0600/0706 26007KT 8000 FEW016 BKN032
TEMPO 0600/0604 03005KT 5000 BR
TEMPO 0608/0613 33005KT
BECMG 0613/0615 36005KT
TEMPO 0619/0701 05005KT 5000 HZ

ZGGG 05/02/2023 UTC

TAF ZGGG 052106Z 0600/0624 36004MPS 6000 BKN040 TX22/0607Z
TN16/0622Z TEMPO 0612/0618 SHRA SCT007 SCT030CB BKN033

ZBAA 05/02/2023 UTC

TAF ZBAA 052101Z 0600/0624 15004MPS 6000 NSC TX09/0607Z
TNM07/0621Z

ZSSS 05/02/2023 UTC

TAF ZSSS 052105Z 0600/0624 06004MPS 5000 -RA BR BKN010 OVC030
TX11/0606Z TN08/0621Z

ZBTJ 05/02/2023 UTC

TAF ZBTJ 052101Z 0600/0624 08004MPS 5000 BR NSC TX07/0606Z
TNM05/0623Z

ZBYN 05/02/2023 UTC

TAF ZBYN 052102Z 0600/0624 21004MPS 6000 NSC TX08/0607Z
TNM06/0622Z

ZSHC 05/02/2023 UTC

TAF ZSHC 052114Z 0600/0624 04003MPS 1500 -RA BR BKN006 BKN020
TX12/0606Z TN08/0621Z TEMPO 0600/0602 0700 FG BKN003 BKN020 BECMG
0603/0604
3000 SCT008 BKN020

ZSOF 06/02/2023 UTC

TAF ZSOF 052103Z 0600/0624 03003MPS 3000 BR BKN040
TX13/0606Z
TN05/0623Z BECMG 0619/0620 2400 -RA BR BECMG 0622/0623 BKN008

ZWWW 05/02/2023 UTC

TAF ZWWW 052104Z 0600/0624 36002MPS 1600 BR BKN020 TXM04/0608Z
TNM10/0623Z BECMG 0613/0614 18002MPS

ZYTL 06/02/2023 UTC

TAF AMD ZYTL 060007Z 0600/0624 36004G10MPS 5000 BR NSC TX04/0606Z
TNM04/0621Z TEMPO 0600/0606 1600

RPLL 05/02/2023 UTC

TAF RPLL 052300Z 0600/0706 11006KT 9999 FEW025 SCT100
TX31/0606Z TN25/0621Z
TEMPO 0600/0606 08010KT SCT023 BKN100
TEMPO 0606/0612 12012KT SCT023

RPVM 05/02/2023 UTC

TAF RPVM 052300Z 0600/0706 05009KT 9999 FEW020 SCT300

RPMZ 05/02/2023 UTC

TAF RPMZ 052300Z 0600/0624 08006KT 9999 FEW017 BKN300
TEMPO 0600/0606 26010KT FEW016CB FEW017 BKN090

Australian International

The availability of aerodrome forecasts from overseas locations is dependent on the regular international exchange of data. Some locations may at times be absent. If this problem persists, please advise webav@bom.gov.au

 back to top

YMML 05/02/2023 UTC

TAF YMML 052321Z 0600/0706
23008KT 9999 SCT025 BKN030
FM060100 19012KT 9999 BKN030
FM061200 18010KT 9999 SCT015 BKN025
FM061500 18008KT 9999 -DZ BKN015
FM062300 17010KT 9999 -DZ SCT015 BKN020
FM070100 18014KT 9999 NSW SCT030
INTER 0615/0700 4000 DZ BKN012
RMK
T 18 20 20 18 Q 1020 1020 1019 1019
TAF3

YSSY 05/02/2023 UTC

TAF YSSY 052317Z 0600/0706
06008KT 9999 BKN030
FM060300 06018KT 9999 SCT035
FM060900 05008KT 9999 SCT025
FM061500 29005KT 9999 -SHRA SCT020 BKN025
BECMG 0700/0702 13008KT 9999 -SHRA BKN030
RMK
T 25 27 26 24 Q 1018 1016 1015 1015
TAF3

YBBN 05/02/2023 UTC

TAF YBBN 052309Z 0600/0706
12013KT 9999 FEW030
FM061300 19006KT 9999 FEW025 SCT040
FM062300 12012KT 9999 SCT035
RMK
T 28 29 27 25 Q 1016 1015 1013 1014
TAF3

YSCB 05/02/2023 UTC

TAF YSCB 052321Z 0600/0700
31008KT CAVOK
FM060600 35008KT CAVOK
FM060800 07008KT CAVOK
BECMG 0611/0613 11005KT 9999 BKN020
BECMG 0621/0623 08006KT 9999 SCT020
RMK
T 22 27 28 23 Q 1019 1017 1016 1016
TAF3

YBCS 05/02/2023 UTC

TAF AMD YBCS 052306Z 0523/0700
15008KT 9999 -SHRA SCT015 BKN030
FM060200 10010KT 9999 -SHRA SCT018 SCT030
FM060900 16005KT 9999 -SHRA SCT015 BKN025
FM061500 16006KT 9999 NSW SCT015 SCT025
INTER 0523/0609 2000 SHRA BKN015
TEMPO 0609/0615 4000 SHRA BKN015
PROB30 TEMPO 0523/0602 VRB20G30KT 1000 TSRA BKN008 SCT020CB
RMK
T 28 31 30 29 Q 1009 1007 1005 1005
TAF3

YBAS 05/02/2023 UTC

TAF YBAS 052301Z 0600/0700
12010KT CAVOK
FM061200 VRB03KT CAVOK
RMK
T 25 31 33 31 Q 1015 1013 1011 1011

YBMA 05/02/2023 UTC

TAF AMD YBMA 052338Z 0600/0612
07010KT 9999 SCT020
FM060900 10005KT 9999 SCT025
PROB30 TEMPO 0602/0612 VRB20G35KT 1000 TSRA BKN010 SCT040CB
RMK
T 27 29 28 27 Q 1010 1008 1007 1009

YPAD 05/02/2023 UTC

TAF YPAD 052305Z 0600/0706
34005KT CAVOK
FM060200 24014KT CAVOK
FM060800 15014KT CAVOK
FM061200 13008KT CAVOK
FM070200 24014KT CAVOK
RMK
T 21 24 26 24 Q 1020 1019 1017 1016
TAF3

YPDN 05/02/2023 UTC

TAF YPDN 052308Z 0600/0706
30010KT 9999 SCT030
FM061200 25007KT 9999 FEW015
FM070100 29013KT 9999 FEW030
RMK
T 29 31 31 29 Q 1008 1007 1005 1005
TAF3

YPTN 05/02/2023 UTC

TAF YPTN 052300Z 0600/0700
14005KT CAVOK
FM061100 30005KT CAVOK
RMK
T 28 33 35 32 Q 1009 1007 1004 1004

YPPH 05/02/2023 UTC

TAF YPPH 052325Z 0600/0706
21012KT 9999 BKN020
FM060300 23014KT 9999 SCT025
FM061300 22012KT 9999 SCT015
FM061800 17006KT 9999 SCT015
FM070100 16008KT 9999 SCT020
FM070400 23014KT CAVOK
RMK
T 22 25 27 26 Q 1009 1009 1008 1008
TAF3

YPLM 05/02/2023 UTC

TAF YPLM 052311Z 0600/0700
18010KT CAVOK
FM060600 05010KT CAVOK
FM060800 30010KT CAVOK
FM060900 24016KT CAVOK
FM061500 21012KT CAVOK
RMK
T 29 36 39 38 Q 1007 1007 1005 1004

YCAR 05/02/2023 UTC

TAF AMD YCAR 052317Z 0523/0611
18014KT 9999 FEW015
FM060300 21018KT CAVOK
RMK
T 25 28 28 29 Q 1008 1009 1008 1007

YPCC 05/02/2023 UTC

TAF YPCC 052310Z 0600/0700
20025KT 9999 -SHRA BKN010
FM060600 20020KT 9999 -SHRA SCT010 BKN020
FM061500 24015KT 9999 NSW SCT010 BKN020
TEMPO 0600/0606 2000 SHRA BKN005
INTER 0606/0700 4000 SHRA BKN010
PROB30 TEMPO 0600/0602 VRB20G45KT 1000 TSRA BKN005 SCT015CB
PROB30 TEMPO 0618/0700 VRB20G35KT 1000 TSRA BKN005 SCT015CB
RMK
T 26 28 28 28 Q 1001 1004 1003 1001

YPPD 05/02/2023 UTC

TAF YPPD 052311Z 0600/0700
09006KT 9999 FEW015
FM060200 36014KT CAVOK
FM061800 18006KT CAVOK
RMK
T 32 36 36 34 Q 1007 1006 1005 1004

YBTL 05/02/2023 UTC

TAF AMD YBTL 052308Z 0600/0700
10014KT 9999 SCT022
FM061200 15007KT 9999 SCT017
INTER 0602/0608 2000 SHRA BKN012
TEMPO 0612/0621 9999 BKN014
PROB30 TEMPO 0602/0608 VRB20G30KT 1000 TSRA BKN008 SCT020CB
RMK
T 30 31 30 29 Q 1009 1007 1006 1007
TAF3 VALID TL 060800

YMHB 05/02/2023 UTC

TAF AMD YMHB 052316Z 0523/0700
27015G25KT 9999 SCT040
FM060900 33010KT 9999 SCT035
FM062300 23010KT 9999 SCT045
RMK
T 21 21 21 19 Q 1013 1013 1012 1012
TAF3

YPXM 05/02/2023 UTC

TAF YPXM 052311Z 0600/0700
30012KT 9999 -SHRA BKN008
TEMPO 0600/0700 29015G25KT 1000 +SHRA BKN001 SCT015TCU
PROB30 TEMPO 0600/0602 VRB20G35KT 0500 +TSRA BKN001 SCT015CB
PROB30 TEMPO 0618/0700 VRB20G35KT 0500 +TSRA BKN001 SCT015CB
RMK
T 24 27 26 26 Q 1008 1009 1008 1007

New Zealand

The availability of aerodrome forecasts from overseas locations is dependent on the regular international exchange of data. Some locations may at times be absent. If this problem persists, please advise webav@bom.gov.au

 back to top

NZAA 05/02/2023 UTC

TAF NZAA 052306Z 0600/0706 35010KT 9999 -SHRA BKN013
BECMG 0600/0602 23010KT SCT030
TEMPO 0600/0601 6000 SHRA BKN008

NZWN 05/02/2023 UTC

TAF NZWN 052306Z 0600/0706 34018KT 9999 SCT025
FM060800 02008KT 9999 FEW030
BECMG 0623/0701 36018KT

NZCH 05/02/2023 UTC

TAF NZCH 052309Z 0600/0706 31015KT CAVOK
BECMG 0601/0603 19010KT
BECMG 0606/0608 04008KT
PROB30 0616/0618 2000 BR
BECMG 0700/0702 30015KT

YLHI 05/02/2023 UTC

TAF YLHI 052318Z 0600/0700
17008KT 9999 SCT025 BKN040
RMK
T 24 25 24 22 Q 1017 1016 1015 1015

YSNF 05/02/2023 UTC

TAF AMD YSNF 052327Z 0523/0700
22005KT 6000 -SHRA BKN006
FM060400 17010KT 6000 -SHRA BKN006
BECMG 0612/0614 17008KT 9999 NSW BKN015
FM062200 15013KT 9999 SCT015 BKN020
TEMPO 0523/0612 2000 SHRA BKN003
RMK
T 23 25 24 22 Q 1014 1013 1012 1012

Indonesia, Malaysia, Myanmar, Singapore, Thailand, Vietnam

The availability of aerodrome forecasts from overseas locations is dependent on the regular international exchange of data. Some locations may at times be absent. If this problem persists, please advise webav@bom.gov.au

 back to top

WADA

TAF not available.

WAAA 05/02/2023 UTC

TAF WAAA 052300Z 0600/0706 09005KT 9000 SCT019
BECMG 0601/0603 30010KT
BECMG 0610/0612 10004KT

WIII 05/02/2023 UTC

TAF WIII 052300Z 0600/0706 23010KT 9000 SCT020
BECMG 0601/0603 33013KT
BECMG 0612/0614 23006KT

WIHH 05/02/2023 UTC

TAF WIHH 052300Z 0600/0700 24008KT 6000 SCT020
BECMG 0604/0606 33012KT

WIMM 05/02/2023 UTC

TAF WIMM 052300Z 0600/0700 03009KT 9999 SCT018
TEMPO 0600/0603 4000 -RA BKN018
BECMG 0612/0614 VRB05KT 5000 HZ

WIPP 05/02/2023 UTC

TAF WIPP 052300Z 0600/0624 30008KT 9999 SCT010
TEMPO 0621/0624 3000 BR

WIKD

TAF not available.

WARR 05/02/2023 UTC

TAF WARR 052300Z 0600/0700 28012KT 9000 SCT020
PROB40 TEMPO 0607/0610 4000 TSRA SCT018CB
BECMG 0616/0618 26005KT 4000 HZ FEW020

WADD 05/02/2023 UTC

TAF WADD 052300Z 0600/0700 28018KT 9999 SCT016
TEMPO 0600/0604 28020G30KT 5000 RA BKN014
TEMPO 0615/0619 5000 RA FEW014CB BKN014

WRRA

TAF not available.

WALL 05/02/2023 UTC

TAF WALL 052300Z 0600/0706 31009KT 2500 TSRA FEW018CB SCT020 BECMG 0601/0603 9999 FEW020

WSSS 05/02/2023 UTC

TAF WSSS 052300Z 0600/0706 35008KT 9999 FEW015 BKN030
TEMPO 0607/0610 3500 TSRA FEW012CB BKN015

WSAP 05/02/2023 UTC

TAF WSAP 052300Z 0600/0706 35008KT 9999 FEW015 BKN030
TEMPO 0607/0610 3500 TSRA FEW012CB BKN015

WMKK 05/02/2023 UTC

TAF WMKK 052300Z 0600/0706 VRB03KT 6000 RA FEW006 FEW017CB
TEMPO 0605/0608 35006KT 5000 TSRA FEW017CB SCT018
BECMG 0608/0609 35005KT 9999 SCT018

WMSA 05/02/2023 UTC

TAF WMSA 052300Z 0600/0700 VRB03KT 9000 FEW018
TEMPO 0600/0602 5000 RA FEW010 FEW017CB
TEMPO 0605/0608 5000 TSRA FEW016CB SCT018

WMKP 05/02/2023 UTC

TAF WMKP 052300Z 0600/0700 VRB02KT 9000 FEW020
BECMG 0604/0606 22007KT 9999
TEMPO 0607/0612 6000 TSRA FEW010 FEW017CB

WMKJ 05/02/2023 UTC

TAF WMKJ 052300Z 0600/0700 32005KT 9999 FEW018
TEMPO 0605/0610 31008KT 5000 TSRA FEW017CB SCT018

WMKD 05/02/2023 UTC

TAF WMKD 052300Z 0600/0624 01005KT 8000 RA FEW025
TEMPO 0600/0604 6000 TSRA FEW017CB

WMKB 05/02/2023 UTC

TAF WMKB 052300Z 0600/0624 VRB02KT 8000 FEW020
BECMG 0604/0606 26007KT
TEMPO 0609/0613 6000 TSRA FEW017CB

VTBD 05/02/2023 UTC

TAF VTBD 052300Z 0600/0706 21005KT 9999 FEW020

VTBS 05/02/2023 UTC

TAF VTBS 052300Z 0600/0706 21008KT 9999 FEW020

VTBU 05/02/2023 UTC

TAF VTBU 052300Z 0600/0624 36003KT 9000 FEW020 BECMG 0603/0605
18008KT BECMG 0612/0614 35003KT

VTCC 05/02/2023 UTC

TAF VTCC 052300Z 0600/0706 03005KT 9999 FEW035 BECMG 0601/0603
20005KT BECMG 0609/0611 26005KT BECMG 0612/0614 20005KT BECMG
0619/0621 02005KT

VTSP 05/02/2023 UTC

TAF VTSP 052300Z 0600/0706 08008KT 9999 FEW020 BECMG 0608/0610
30008KT BECMG 0614/0616 00000KT BECMG 0700/0702 08008KT

VTSS 05/02/2023 UTC

TAF VTSS 052300Z 0600/0624 00000KT 9999 FEW020 BKN100 BECMG 0603/0605
06015KT BECMG 0614/0616 32003KT

VVTS 05/02/2023 UTC

TAF VVTS 052300Z 0600/0706 12010KT 9999 SCT017

VDPP 05/02/2023 UTC

TAF VDPP 052300Z 0600/0618 19007KT 9999 FEW017

VVNB 05/02/2023 UTC

TAF VVNB 052300Z 0600/0624 09005KT 3500 BR BKN006 TEMPO 0600/0602
2000 RA BR BKN006 FEW023TCU BECMG 0603/0604 6000 NSW SCT008
BKN020 BECMG 0612/0614 4000 BR BKN005 OVC010 TEMPO 0618/0624 1500
DZ BR BKN003 OVC008

VYYY 05/02/2023 UTC

TAF VYYY 052300Z 0600/0624 26007KT 8000 NSC BECMG 0600/0602 00000KT
2000 BR TEMPO 0606/0612 26008KT 6000 HZ

South America

The availability of aerodrome forecasts from overseas locations is dependent on the regular international exchange of data. Some locations may at times be absent. If this problem persists, please advise webav@bom.gov.au

 back to top

SAEZ 06/02/2023 UTC

TAF SAEZ 052300Z 0600/0624 36005KT CAVOK TX34/0619Z TN21/0608Z
BECMG 0608/0610 33015KT BECMG 0615/0617 VRB03KT
BECMG 0618/0620 04005KT

SAVC 06/02/2023 UTC

TAF SAVC 052300Z 0600/0624 05015KT CAVOK TX25/0619Z TN15/0606Z BECMG
0608/0610 29015KT BECMG
0613/0615 14010KT BECMG 0615/0617 05015KT

SCIE 05/02/2023 UTC

TAF SCIE 052214Z 0600/0624 23006KT 2500 FU NSC TX22/0618Z TN14/0610Z
BECMG 0602/0604 7000 NSW
BECMG 0615/0617 23012KT CAVOK

SACO 06/02/2023 UTC

TAF SACO 052300Z 0600/0624 02010KT CAVOK
TX34/0618Z TN17/0610Z
BECMG 0603/0605 30010KT
BECMG 0614/0616 03010KT

SCIP 06/02/2023 UTC

TAF SCIP 052253Z 0600/0624 09004KT 9999 SCT025
TN20/0610Z TX27/0620Z

SAZM 06/02/2023 UTC

TAF SAZM 052300Z 0600/0624 33010KT 9999 SCT020 BKN060 TX24/0618Z
TN18/0610Z
BECMG 0611/0613 09010KT 9999 SCT020 SCT030
TEMPO 0612/0618 11015G25KT 6000 -SHRA BKN030 FEW040CB

SAME 05/02/2023 UTC

TAF SAME 052300Z 0600/0624 05005KT 9999 FEW040 TX37/0621Z
TN19/0609Z
BECMG 0602/0604 20005KT CAVOK
BECMG 0615/0617 05010KT 9999 FEW040

SUMU 05/02/2023 UTC

TAF SUMU 052330Z 0600/0624 01005KT CAVOK TX31/0618Z TN19/0609Z
BECMG 0615/0617 16010KT

SAZN 06/02/2023 UTC

TAF SAZN 052300Z 0600/0624 24010KT CAVOK TX38/0619Z TN22/0609Z
BECMG 0610/0612 16010KT
BECMG 0615/0618 VRB05KT

SCTE 05/02/2023 UTC

TAF SCTE 052231Z 0600/0624 24010KT 9999 SCT050
TN09/0610Z TX21/0619Z
BECMG 0606/0608 SCT020
BECMG 0612/0614 18010KT CAVOK

SCCI 05/02/2023 UTC

TAF SCCI 052230Z 0600/0700 26015G25KT 9999 FEW045
TN08/0603Z TX14/0618Z
BECMG 0605/0607 30020G35KT 9000 BKN035
PROB40 TEMPO 0606/0609 7000 RA SHRA SCT020 BKN030
TEMPO 0611/0616 30030G42KT
BECMG 0621/0623 26015G25KT 7000 SHRA SCT015 BKN025

SAWG 05/02/2023 UTC

TAF SAWG 052300Z 0600/0624 27020G30KT 9999 BKN030 OVC045
TX23/0618Z
TN10/0610Z
TEMPO 0602/0604 29015KT
BECMG 0613/0615 27020G30KT SCT030 OVC060

SAAR 06/02/2023 UTC

TAF SAAR 052300Z 0600/0624 07010KT CAVOK TX34/0618Z TN18/0609Z
BECMG 0612/06114 36010KT

SAZS 06/02/2023 UTC

TAF SAZS 052300Z 0600/0624 30015KT CAVOK TX29/0618Z TN09/0609Z
BECMG 0603/0605 VRB03KT
BECMG 0613/0615 31010KT

SCEL 06/02/2023 UTC

TAF SCEL 052214Z 0600/0624 21015KT CAVOK TX32/0619Z TN16/0610Z
BECMG 0601/0603 15005KT
BECMG 0615/0617 21016KT

SAWH 05/02/2023 UTC

TAF SAWH 052300Z 0600/0624 23025G35KT 8000 RA BKN020 BKN050
TX15/0618Z TN03/0606Z
BECMG 0607/0609 29012KT 9999 SCT030 BKN070
TEMPO 0610/0614 29015G25KT 8000 -RA BKN030 OVC050
BECMG 0620/0622 25015G25KT

Guam, Japan, Korea

The availability of aerodrome forecasts from overseas locations is dependent on the regular international exchange of data. Some locations may at times be absent. If this problem persists, please advise webav@bom.gov.au

 back to top

PGUA 05/02/2023 UTC

TAF PGUA 051800Z 0518/0624 10012G18KT 9999 SCT014 QNH2983INS
TEMPO 0518/0603 11018G25KT 8000 -SHRA BKN018
TEMPO 0607/0624 11015G25KT 8000 -SHRA BKN012 TX29/0602Z
TN25/0518Z

PGUM 05/02/2023 UTC

TAF PGUM 052320Z 0600/0706 07012KT P6SM VCSH SCT025

PGSN 05/02/2023 UTC

TAF PGSN 052320Z 0600/0624 06012G22KT P6SM VCSH SCT022

PTRO 05/02/2023 UTC

TAF PTRO 052320Z 0600/0624 05011KT P6SM VCSH SCT015 SCT120
TEMPO 0600/0604 -SHRA BKN015 BKN110

RJOO

05/02/2023 UTC

TAF RJOO 052306Z 0600/0706 06004KT 9999 FEW030 BECMG 0606/0608
32005KT BECMG 0621/0700 06006KT

RJOB 05/02/2023 UTC

TAF RJOB 052305Z 0600/0706 04004KT 9999 FEW025 BECMG 0601/0603
20005KT BECMG 0607/0609 36004KT BECMG 0700/0703 20005KT

RJGG 05/02/2023 UTC

TAF RJGG 052305Z 0600/0706 34008KT 9999 FEW030

RJCC 05/02/2023 UTC

TAF RJCC 052307Z 0600/0706 33010KT 9999 FEW015 SCT030 BECMG
0612/0615 12005KT BECMG 0700/0703 36005KT

RJSS 05/02/2023 UTC

TAF RJSS 052312Z 0600/0706 26010KT 9999 FEW020 SCT040 BECMG
0700/0703 06005KT

RJFK 05/02/2023 UTC

TAF RJFK 052309Z 0600/0706 10010KT 9000 -SHRA FEW010 SCT015 BKN025
TEMPO 0606/0615 4000 SHRA BR BECMG 0703/0706 20004KT

RJAA 05/02/2023 UTC

TAF RJAA 052307Z 0600/0706 32008KT 9999 FEW030

RJBB 05/02/2023 UTC

TAF RJBB 052306Z 0600/0706 03006KT 9999 FEW030 BECMG 0603/0605
30004KT BECMG 0607/0609 06005KT

RJTT 05/02/2023 UTC

TAF RJTT 052305Z 0600/0706 35010KT 9999 FEW030 BECMG 0602/0604
16005KT BECMG 0610/0612 35008KT

RJFF 05/02/2023 UTC

TAF RJFF 052310Z 0600/0706 14005KT 9999 FEW030 BECMG 0601/0603
35006KT BECMG 0606/0608 14005KT BECMG 0703/0706 35006KT

RJFT 05/02/2023 UTC

TAF RJFT 052307Z 0600/0706 03005KT 9999 FEW030 BECMG 0600/0602
28003KT BECMG 0609/0611 03007KT TEMPO 0609/0615 4000 SHRA
BR BECMG 0621/0700 24004KT

RJFU 05/02/2023 UTC

TAF RJFU 052306Z 0600/0706 15005KT 9999 FEW020 BECMG 0601/0603
28003KT BECMG 0606/0608 10005KT TEMPO 0609/0612 4000 SHRA
BR BECMG 0621/0700 34006KT

ROAH 05/02/2023 UTC

TAF ROAH 052308Z 0600/0706 11008KT 9999 FEW010 BKN030 TEMPO
0600/0603 4000 SHRA BECMG 0603/0605 19018KT BECMG 0615/0618
24008KT BECMG 0618/0621 35010KT

RKSS 05/02/2023 UTC

TAF RKSS 052300Z 0600/0706 11005KT 4000 BR NSC
TX08/0606Z TNM02/0621Z TX09/0706Z
BECMG 0601/0603 6000 NSW
BECMG 0605/0607 28005KT
BECMG 0613/0615 36005KT 3500 BR
BECMG 0623/0701 33005KT 6000 NSW

RKSI 05/02/2023 UTC

TAF RKSI 052300Z 0600/0706 15006KT 2500 BR FEW010 SCT030
TX06/0605Z TNM01/0622Z TX07/0705Z
BECMG 0601/0603 18006KT 6000 NSW
BECMG 0604/0606 27008KT
BECMG 0611/0613 33006KT 3500 BR
BECMG 0616/0618 01006KT 2500
BECMG 0701/0703 34006KT 6000 NSW

RKSM 05/02/2023 UTC

TAF RKSM 052300Z 0600/0706 21006KT 4800 BR SCT200 TX08/0606Z
TNM02/0621Z

RKPK 05/02/2023 UTC

TAF RKPK 052300Z 0600/0706 33006KT CAVOK
TX13/0606Z TN00/0621Z
BECMG 0604/0605 21006KT
BECMG 0609/0610 33006KT

RKPC 05/02/2023 UTC

TAF RKPC 052300Z 0600/0706 11007KT CAVOK
TX12/0604Z TN07/0620Z TX11/0705Z
BECMG 0602/0603 05010KT 9999 BKN030 OVC100
BECMG 0606/0607 09008KT 6000 -RA
TEMPO 0612/0615 06008KT NSW
BECMG 0616/0617 06008KT NSW
BECMG 0702/0703 36007KT SCT030

Indonesia, Pakistan, Singapore, India, Sri Lanka, United Arab Emirates

The availability of aerodrome forecasts from overseas locations is dependent on the regular international exchange of data. Some locations may at times be absent. If this problem persists, please advise webav@bom.gov.au

 back to top

WIII 05/02/2023 UTC

TAF WIII 052300Z 0600/0706 23010KT 9000 SCT020
BECMG 0601/0603 33013KT
BECMG 0612/0614 23006KT

WSSS 05/02/2023 UTC

TAF WSSS 052300Z 0600/0706 35008KT 9999 FEW015 BKN030
TEMPO 0607/0610 3500 TSRA FEW012CB BKN015

VCBI 05/02/2023 UTC

TAF VCBI 052300Z 0600/0706 04010KT 9999 FEW018 TX31/0607Z
TN23/0700Z PROB30
TEMPO 0608/0614 7000 -TSRA/SHRA SCT017 FEW020CB
BECMG 0610/0612 VRB05KT
BECMG 0701/0703 03010KT

VECC 05/02/2023 UTC

TAF VECC 051700Z 0518/0624 36005KT 2800 HZ NSC
BECMG 0601/0603 1000 BR
BECMG 0603/0605 28005KT 2500 HZ
BECMG 0607/0609 3500 HZ
BECMG 0620/0622 2000 BR

VOMM 05/02/2023 UTC

TAF VOMM 052300Z 0600/0706 VRB02KT 2000 BR FEW020 SCT100
TEMPO 0600/0603 0800 FG
BECMG 0603/0604 07005KT 4000 BR
BECMG 0606/0607 07010KT 6000
BECMG 0618/0619 01005KT 3000 BR
TEMPO 0700/0703 0800 FG
BECMG 0705/0706 07010KT 5000 HZ

VOTV 05/02/2023 UTC

TAF VOTV 052300Z 0600/0706 27003KT 2500 BR FEW015
BECMG 0603/0605 25005KT 6000 FEW015
BECMG 0612/0614 VRB03KT 4000 BR SCT015
TEMPO 0616/0618 VRB02KT 3500 TS BR FEW015 FEW025CB SCT080
BECMG 0703/0705 11003KT 5000 HZ FEW015

VABB 05/02/2023 UTC

TAF VABB 052300Z 0600/0706 00000KT 2000 FU NSC
BECMG 0603/0605 02005KT 2500 FU FEW020
BECMG 0607/0609 29010KT 3000 FU SCT020
BECMG 0613/0615 32005KT
BECMG 0620/0622 00000KT 2500 FU NSC
BECMG 0703/0705 05003KT 2000 FU

VAAH 05/02/2023 UTC

TAF VAAH 052300Z 0600/0706 VRB02KT 3000 HZ NSC
BECMG 0601/0603 32004KT 2000
BECMG 0604/0606 5000 FU
BECMG 0607/0609 6000
BECMG 0610/0612 32006KT
BECMG 0613/0615 4000
BECMG 0616/0618 34004KT
BECMG 0622/0624 VRB02KT 3000 HZ
BECMG 0701/0703 2000
BECMG 0704/0706 05003KT 5000 FU

VILK 05/02/2023 UTC

TAF VILK 052300Z 0600/0706 00000KT 1500 BR NSC
BECMG 0604/0606 29006KT 3000 HZ
BECMG 0607/0609 5000 HZ
BECMG 0616/0616 00000KT 3000 BR
BECMG 0700/0702 1500 BR
BECMG 0704/0706 30006KT 3000 HZ

VANP 05/02/2023 UTC

TAF VANP 051700Z 0518/0624 09004KT 3000 HZ NSC
BECMG 0602/0604 03004KT 2000 BR/HZ FEW100
BECMG 0610/0612 05005KT 4000 HZ NSC
BECMG 0618/0620 VRB02KT 3000 HZ FEW100

VRMM 05/02/2023 UTC

TAF VRMM 052300Z 0600/0706 06013KT 9999 FEW018TCU SCT120 TEMPO
0600/0606 5000 TSRA FEW017CB

VOHS 05/02/2023 UTC

TAF VOHS 052300Z 0600/0706 06006KT 4000 BR NSC TEMPO 0600/0603
VRB04KT 1500 BR SCT010 BECMG 0605/0607 06010KT 6000 FEW020 BECMG
0615/0617 VRB04KT 5000 HZ NSC TEMPO 0700/0703 VRB04KT 1500 BR SCT010
BECMG 0704/0706 06010KT 6000 FEW020

OPKC 05/02/2023 UTC

TAF OPKC 052130Z 0600/0706 25007G17KT 6000 NSC TEMPO 0600/0604
VRB03KT 1000 BR NSC FM061800 30007KT 4000 HZ NSC TEMPO
0700/0705 02005KT 1500 BR NSC

OBBI 05/02/2023 UTC

TAF OBBI 052300Z 0600/0706 VRB05KT CAVOK BECMG 0606/0608 14010KT
TEMPO 0617/0702 15012G22KT

OMAA 05/02/2023 UTC

TAF OMAA 052300Z 0600/0706 VRB02KT 8000 NSC
PROB30 0600/0606 1500 BR
BECMG 0607/0609 35008KT
BECMG 0620/0622 12005KT

OMDB 05/02/2023 UTC

TAF OMDB 052300Z 0600/0706 17005KT 8000 NSC
PROB30 0600/0606 1500 BR
BECMG 0608/0610 34010KT
BECMG 0616/0618 09005KT

OOMS 05/02/2023 UTC

TAF OOMS 051700Z 0518/0624 VRB02KT 8000 NSC BECMG 0606/0608 35010KT
BECMG 0615/0617 VRB02KT

OMSJ 05/02/2023 UTC

TAF OMSJ 052300Z 0600/0706 17005KT 8000 NSC
PROB30 0600/0606 3000 BR BKN010
PROB30 0601/0605 0100 FG VV///
BECMG 0608/0610 34010KT
BECMG 0616/0618 09005KT

Malawi, Mauritius, South Africa, Zambia, Zimbabwe

The availability of aerodrome forecasts from overseas locations is dependent on the regular international exchange of data. Some locations may at times be absent. If this problem persists, please advise webav@bom.gov.au

 back to top

FIMP 05/02/2023 UTC

TAF COR FIMP 052305Z 0600/0706 09010KT 9999 SCT017
TEMPO 0600/0603 7000 -SHRA FEW010 BKN015

FMEE 05/02/2023 UTC

TAF FMEE 052300Z 0600/0706 14012KT 9999 SCT025 PROB40 TEMPO 0600/0604
3000 SHRA BECMG 0604/0606 08018KT BECMG 0610/0612 14012KT PROB30
TEMPO 0620/0703 4000 SHRA SCT020TCU

FLKK 05/02/2023 UTC

TAF FLKK 051000Z 0512/0618 00000KT 9999 FEW040CB
PROB40 TEMPO 0512/0515 9000 -SHRA
FM052100 VRB03KT CAVOK
BECMG 0604/0606 29010KT 9999 BKN010

FWKI 05/02/2023 UTC

TAF FWKI 051400Z 0518/0624 32012KT 3000 -TSRA FEW024CB SCT026 BKN080
BECMG
0518/0520 VRB04KT 8000 -RA FEW022CB SCT025 BKN080 BECMG 0604/0606
VRB02KT 9999 BKN020 BKN080

FAOR 05/02/2023 UTC

TAF FAOR 052200Z 0600/0706 VRB03KT CAVOK
TX27/0614Z TN16/0603Z
BECMG 0600/0602 06009KT
PROB30 TEMPO 0602/0606 BKN008
BECMG 0607/0609 VRB03KT
BECMG 0614/0616 12010KT
BECMG 0704/0706 VRB03KT

FVHA

TAF not available.

FAWK 06/02/2023 UTC

TAF FAWK 060000Z 0601/0612 NIL

FABL 05/02/2023 UTC

TAF FABL 052200Z 0600/0624 VRB03KT 9999 SCT030
TX30/0612Z TN16/0603Z
BECMG 0610/0612 34005KT FEW035TCU
PROB30 TEMPO 0613/0618 -TSRA FEW035CB

FALE 05/02/2023 UTC

TAF FALE 052200Z 0600/0706 VRB03KT 9999 FEW025
TX28/0613Z TN21/0603Z
BECMG 0610/0612 09012KT
BECMG 0622/0700 VRB03KT

YPCC 05/02/2023 UTC

TAF YPCC 052310Z 0600/0700
20025KT 9999 -SHRA BKN010
FM060600 20020KT 9999 -SHRA SCT010 BKN020
FM061500 24015KT 9999 NSW SCT010 BKN020
TEMPO 0600/0606 2000 SHRA BKN005
INTER 0606/0700 4000 SHRA BKN010
PROB30 TEMPO 0600/0602 VRB20G45KT 1000 TSRA BKN005 SCT015CB
PROB30 TEMPO 0618/0700 VRB20G35KT 1000 TSRA BKN005 SCT015CB
RMK
T 26 28 28 28 Q 1001 1004 1003 1001

United States (includes Hawaii) and Mexican emergency/alternates

The availability of aerodrome forecasts from overseas locations is dependent on the regular international exchange of data. Some locations may at times be absent. If this problem persists, please advise webav@bom.gov.au

 back to top

PHNL 05/02/2023 UTC

TAF PHNL 052346Z 0600/0706 06017G23KT P6SM FEW030 SCT045
FM060600 06010KT P6SM SCT025 SCT045
FM062000 06017G23KT P6SM FEW030 SCT045

PHLI 05/02/2023 UTC

TAF PHLI 052346Z 0600/0624 06016KT P6SM SCT025 SCT040
FM060600 06012KT P6SM VCSH SCT025 SCT045
FM062000 06016KT P6SM SCT025 SCT050

PHOG 05/02/2023 UTC

TAF PHOG 052346Z 0600/0624 07020G29KT P6SM SCT025 SCT060 WS004/11020KT
FM060600 06010KT P6SM SCT025 SCT050
FM062000 07019G28KT P6SM SCT025 SCT060

PHTO 05/02/2023 UTC

TAF PHTO 052346Z 0600/0624 02008KT P6SM VCSH SCT025 BKN040
FM060500 24006KT P6SM -SHRA SCT020 BKN030
FM062000 05010KT P6SM VCSH SCT025 BKN035

PKMJ 05/02/2023 UTC

TAF PKMJ 052320Z 0600/0624 07015KT P6SM VCSH SCT015 SCT050 BKN120

KLAX 05/02/2023 UTC

TAF KLAX 052344Z 0600/0706 27018G28KT P6SM FEW040
FM060400 33012G20KT P6SM SKC
FM060600 35010KT P6SM SKC
FM062000 28012KT P6SM SKC

KONT 05/02/2023 UTC

TAF KONT 052332Z 0600/0706 25010KT P6SM SCT035 BKN050
FM060700 25010KT P6SM SCT050
FM060900 25006KT P6SM SKC
FM061200 04012KT P6SM SKC
FM062000 32010KT P6SM SKC
FM070200 04012KT P6SM SKC

KPMD 06/02/2023 UTC

TAF KPMD 052359Z 0600/0624 30022G32KT P6SM FEW050
FM061200 29012KT P6SM SKC
FM061900 04013KT P6SM SKC

KSAN 05/02/2023 UTC

TAF KSAN 052344Z 0600/0706 29011KT P6SM SCT015 SCT025
FM060500 29011KT P6SM BKN030
FM060900 28011KT P6SM SCT030
FM061400 VRB04KT P6SM SKC
FM062000 30010KT P6SM SKC
FM070100 VRB04KT P6SM SKC

KLAS 05/02/2023 UTC

TAF KLAS 052322Z 0600/0706 23020G30KT P6SM FEW120 SCT250
FM060200 25012G20KT P6SM SCT070 SCT120
FM060600 27008KT P6SM SCT070 BKN120
FM061000 30012G22KT P6SM SCT070 BKN120
FM061600 34016G26KT P6SM FEW120
FM070100 01012G20KT P6SM FEW200

KOAK 05/02/2023 UTC

TAF KOAK 052320Z 0600/0706 29017G30KT P6SM VCSH SCT025 BKN050
FM060100 31014G23KT P6SM FEW030 SCT080
FM060600 33008KT P6SM SKC
FM062200 30015KT P6SM SKC
FM070400 VRB04KT P6SM SKC

KSFO 05/02/2023 UTC

TAF KSFO 052320Z 0600/0706 29023G32KT P6SM -SHRA SCT025 BKN050
FM060100 29020G26KT P6SM FEW030 SCT080
FM060600 30014KT P6SM SKC
FM061200 32007KT P6SM SKC
FM061900 36010KT P6SM SKC
FM062200 30015KT P6SM SKC
FM070400 28005KT P6SM SKC

KSMF 05/02/2023 UTC

TAF KSMF 052320Z 0600/0624 25010KT P6SM VCSH FEW080 BKN110
FM060300 32007KT P6SM FEW250

KSCK 05/02/2023 UTC

TAF KSCK 052320Z 0600/0624 27015G24KT P6SM VCSH FEW040 SCT045 SCT060
FM060700 30007KT P6SM SKC

KFAT 05/02/2023 UTC

TAF KFAT 052320Z 0600/0624 35012KT P6SM VCTS BKN040 OVC050CB
FM060200 31008KT P6SM BKN050
FM061400 VRB03KT P6SM BKN020

KJFK 05/02/2023 UTC

TAF KJFK 052320Z 0600/0706 21008KT P6SM SCT120 OVC200
FM060900 34006KT P6SM SCT050 BKN120
FM061500 34015G24KT P6SM SCT070 BKN200
FM070000 35010KT P6SM SKC

KPHL 05/02/2023 UTC

TAF KPHL 052321Z 0600/0706 22006KT P6SM BKN200
FM060400 VRB03KT P6SM BKN200
FM061000 33006KT P6SM BKN050
FM061400 34012G22KT P6SM BKN050
FM062000 33012G22KT P6SM SCT050
FM062300 32010KT P6SM SKC
FM070400 35004KT P6SM SKC

KPIT 05/02/2023 UTC

TAF KPIT 052320Z 0600/0706 24010KT P6SM BKN040
FM060300 27010KT P6SM OVC025
FM060700 31008KT P6SM OVC015
FM061800 32003KT P6SM SCT030
FM070000 12005KT P6SM BKN100

KDEN 05/02/2023 UTC

TAF KDEN 052335Z 0600/0706 01007KT P6SM FEW140 SCT220
FM060200 22010KT P6SM FEW220
FM061200 26012KT P6SM SCT120 BKN200
FM061600 36014KT P6SM FEW070 SCT120 SCT170
FM062100 35015G25KT P6SM SCT060 BKN080
FM070100 35008KT P6SM SCT060 BKN080
FM070400 21009KT P6SM SCT120

KMCI 05/02/2023 UTC

TAF KMCI 052320Z 0600/0624 26007KT P6SM SKC
FM060300 13005KT P6SM FEW200
FM061300 14015G25KT P6SM BKN250
FM061900 19021G35KT P6SM OVC040

KDFW 05/02/2023 UTC

TAF KDFW 052325Z 0600/0706 18009KT P6SM FEW250
FM061200 17011KT P6SM BKN009
TEMPO 0612/0616 2SM BR BKN005
FM061600 18016G26KT P6SM BKN014
FM062000 18020G30KT P6SM SCT020
FM070100 18016G26KT P6SM BKN250

KAUS 05/02/2023 UTC

TAF KAUS 052320Z 0600/0706 18005KT P6SM SKC
FM060900 19004KT 4SM BR OVC006
FM061200 18006KT 1SM BR OVC004
FM061700 18015G25KT P6SM BKN015
FM061900 17015G25KT P6SM SCT060
FM070400 17013KT P6SM BKN015

KELP 05/02/2023 UTC

TAF KELP 052340Z 0600/0624 22007KT P6SM SKC
FM061700 23013KT P6SM FEW250
FM062000 25021G28KT P6SM FEW250

KIAH 05/02/2023 UTC

TAF KIAH 052322Z 0600/0706 VRB06KT P6SM BKN050
FM060900 VRB04KT 5SM BR SCT025 BKN035
FM061100 VRB04KT 4SM BR FEW004 BKN025
FM061500 16012KT P6SM SCT025 BKN035
FM061800 16015G23KT P6SM SCT035 BKN045
FM070300 14012KT P6SM SCT025 BKN035

KSAT 05/02/2023 UTC

TAF KSAT 052320Z 0600/0706 16006KT P6SM SKC
FM060800 17005KT 4SM BR BKN005
FM061000 18006KT 1/2SM FG OVC002
FM061700 18015G25KT 6SM BR BKN015
FM061900 16015G25KT P6SM SCT060
FM070400 15013KT P6SM BKN012

KTUS 05/02/2023 UTC

TAF KTUS 052320Z 0600/0624 29010KT P6SM SKC
FM060100 28008KT P6SM FEW200
FM060400 15007KT P6SM BKN200
FM061700 32008KT P6SM SKC
FM062100 29013G21KT P6SM SKC

MMCU 05/02/2023 UTC

TAF MMCU 051627Z 0518/0618 20008KT P6SM SKC
FM060200 20005KT P6SM SKC
FM061600 24008KT P6SM SKC

MMHO 05/02/2023 UTC

TAF MMHO 051733Z 0518/0618 18005KT P6SM SKC
FM052200 26005KT P6SM SKC
FM060200 00000KT P6SM SCT200
FM060600 26005KT P6SM BKN200
FM061200 21005KT P6SM SCT200

MMLT 05/02/2023 UTC

TAF MMLT 051702Z 0518/0618 06008KT P6SM SKC
FM052100 05005KT P6SM SCT250
FM060300 27005KT P6SM BKN250
FM060900 00000KT P6SM BKN250

MMSD 05/02/2023 UTC

TAF MMSD 051702Z 0518/0618 18010KT P6SM SCT250
BECMG 0600/0601 36005KT
FM060900 00000KT P6SM BKN250
FM061500 22005KT P6SM SCT250

Papua New Guinea, Southwest Pacific

The availability of aerodrome forecasts from overseas locations is dependent on the regular international exchange of data. Some locations may at times be absent. If this problem persists, please advise webav@bom.gov.au

 back to top

NWWW 05/02/2023 UTC

TAF NWWW 052300Z 0600/0624 18012KT 9999 SCT026 SCT040 TEMPO 0600/0608
3000 SHRA BKN014 FEW016CB PROB30 TEMPO 0600/0606 1400 +TSRA BKN010
SCT016CB BECMG 0606/0608 VRB02KT PROB40 TEMPO 0612/0624 3000 SHRA
BKN014 FEW016CB

NFFN 05/02/2023 UTC

TAF NFFN 052303Z 0600/0624
27010KT 9999 SCT028
PROB30 TEMPO 0604/0608 5000 SHRA BKN018
BECMG 0606/0608 VRB05KT
BECMG 0522/0524 27010KT

NFNA 05/02/2023 UTC

TAF AMD NFNA 052328Z 0600/0624
29005KT 9999 FEW020
TEMPO 0603/0618 3000 +TSRA BKN015 SCT017CB

NFTF 05/02/2023 UTC

TAF NFTF 052306Z 0600/0624
24005KT 9999 SCT016 BKN100
PROB40 TEMPO 0600/0612 3000 +TSRA BKN015 SCT016CB

NSTU 05/02/2023 UTC

TAF NSTU 052346Z 0600/0624 VRB05KT P6SM VCSH SCT015 BKN040

NVVV 05/02/2023 UTC

TAF NVVV 052300Z 0600/0624 02005KT 9999 SCT020
PRO30 INTER 0600/0606 9000 -SHRA BKN018

NCRG 05/02/2023 UTC

TAF NCRG 052307Z 0600/0624
05012KT 9999 BKN017
PROB40 TEMPO 0600/0624 3000 +TSRA BKN015 SCT016CB

NTAA 05/02/2023 UTC

TAF NTAA 052300Z 0600/0706 VRB05KT 9999 FEW023 PROB30 TEMPO 0600/0602
05015KT PROB30 TEMPO 0615/0618 04015KT 3000 SHRA SCT020 PROB30 TEMPO
0621/0624 05015KT

NTTG

TAF not available.

NTTO

TAF not available.

NSFA 05/02/2023 UTC

TAF NSFA 052310Z 0600/0624
03006KT 9999 FEW022 SCT050 BKN100
PROB40 TEMPO 0603/0606 5000 TSRA BKN015 FEW018CB

ANYN

TAF not available.

AGGH 05/02/2023 UTC

TAF AGGH 052315Z 0600/0624 FTSO31 AGGG 052315

AGGM 05/02/2023 UTC

TAF AGGM 052315Z 0600/0624 34015KT 9999 -SHRA SCT016 BKN100

TEMPO 0600/0612 2500 TSRA SCT005 SCT015 FEW016CB

Q 1005 1003 1002 1004

AGGN 05/02/2023 UTC

TAF AGGN 052315Z 0600/0624 34015KT 9999 -SHRA SCT016 BKN100

TEMPO 0600/0612 2500 TSRA SCT005 SCT015 FEW016CB

Q 1005 1003 1002 1004

AYPY 05/02/2023 UTC

TAF AYPY 052203Z 0600/0624 34006KT 9999 SCT018 SCT130
FM060200 27008KT 9999 -SHRA SCT018 SCT030 BKN130
INTER 0603/0609 5000 SHRA BKN010

AYNZ

TAF not available.

AYMD

TAF not available.

AYMH

TAF not available.

AYTA

TAF not available.

PKMJ 05/02/2023 UTC

TAF PKMJ 052320Z 0600/0624 07015KT P6SM VCSH SCT015 SCT050 BKN120

NGTA 05/02/2023 UTC

TAF NGTA 052311Z 0600/0624
09009KT 9999 FEW019 BKN040
PROB40 TEMPO 0603/0618 08015G25KT 5000 TSRA FEW018CB

PTRO 05/02/2023 UTC

TAF PTRO 052320Z 0600/0624 05011KT P6SM VCSH SCT015 SCT120
TEMPO 0600/0604 -SHRA BKN015 BKN110

YLHI 05/02/2023 UTC

TAF YLHI 052318Z 0600/0700
17008KT 9999 SCT025 BKN040
RMK
T 24 25 24 22 Q 1017 1016 1015 1015

YSNF 05/02/2023 UTC

TAF AMD YSNF 052327Z 0523/0700
22005KT 6000 -SHRA BKN006
FM060400 17010KT 6000 -SHRA BKN006
BECMG 0612/0614 17008KT 9999 NSW BKN015
FM062200 15013KT 9999 SCT015 BKN020
TEMPO 0523/0612 2000 SHRA BKN003
RMK
T 23 25 24 22 Q 1014 1013 1012 1012

Indonesia, Timor Leste, Papua New Guinea

The availability of aerodrome forecasts from overseas locations is dependent on the regular international exchange of data. Some locations may at times be absent. If this problem persists, please advise webav@bom.gov.au

 back to top

WAAA 05/02/2023 UTC

TAF WAAA 052300Z 0600/0706 09005KT 9000 SCT019
BECMG 0601/0603 30010KT
BECMG 0610/0612 10004KT

WAMM 05/02/2023 UTC

TAF WAMM 052300Z 0600/0706 36009KT 9999 SCT020
PROB30 TEMPO 0604/0607 5000 RA FEW018CB
BECMG 0611/612 VRB03KT

WAMP

TAF not available.

WAJJ 05/02/2023 UTC

TAF WAJJ 052300Z 0600/0624 29005KT 9999 SCT013
TEMPO 0602/0605 -RA FEW012CB

WAPP 05/02/2023 UTC

TAF WAPP 052300Z 0600/0624 34008KT 9999 SCT017

WABB 05/02/2023 UTC

TAF WABB 052300Z 0600/0706 27010KT 7000 RA BKN018
BECMG 0603/0605 9999 NSW SCT018
TEMPO 0614/0618 4000 RA FEW017CB

WPDL 05/02/2023 UTC

TAF WPDL 052243Z 0600/0612
16005KT 9999 SCT020
FM060100 33010KT 9999 BKN025
FM061100 16005KT 9999 SCT015
PROB30 TEMPO 0600/0612 VRB20G35KT 1000 TSRA BKN010 SCT025CB
RMK
T 28 30 30 28 Q 1008 1007 1006 1006

WATT 05/02/2023 UTC

TAF WATT 051700Z 0518/0618 21004KT 8000 BKN015
PROB40 TEMPO 0605/0609 3000 TSRA FEW012CB BKN014

WIII 05/02/2023 UTC

TAF WIII 052300Z 0600/0706 23010KT 9000 SCT020
BECMG 0601/0603 33013KT
BECMG 0612/0614 23006KT

WIHH 05/02/2023 UTC

TAF WIHH 052300Z 0600/0700 24008KT 6000 SCT020
BECMG 0604/0606 33012KT

WIMM 05/02/2023 UTC

TAF WIMM 052300Z 0600/0700 03009KT 9999 SCT018
TEMPO 0600/0603 4000 -RA BKN018
BECMG 0612/0614 VRB05KT 5000 HZ

WARR 05/02/2023 UTC

TAF WARR 052300Z 0600/0700 28012KT 9000 SCT020
PROB40 TEMPO 0607/0610 4000 TSRA SCT018CB
BECMG 0616/0618 26005KT 4000 HZ FEW020

WADD 05/02/2023 UTC

TAF WADD 052300Z 0600/0700 28018KT 9999 SCT016
TEMPO 0600/0604 28020G30KT 5000 RA BKN014
TEMPO 0615/0619 5000 RA FEW014CB BKN014

AYPY 05/02/2023 UTC

TAF AYPY 052203Z 0600/0624 34006KT 9999 SCT018 SCT130
FM060200 27008KT 9999 -SHRA SCT018 SCT030 BKN130
INTER 0603/0609 5000 SHRA BKN010

AYNZ

TAF not available.

AYMH

TAF not available.

AYMD

TAF not available.

AYHK

TAF not available.

AYTK

TAF not available.

AYVN

TAF not available.

AYWK

TAF not available.

AYGA

TAF not available.

AYDU

TAF not available.

AYMS

TAF not available.

AYRB

TAF not available.

AYTB

TAF not available.

AYKI

TAF not available.

AYKT

TAF not available.

AYBK

TAF not available.

AYKM

TAF not available.

AYKY

TAF not available.

AYMO

TAF not available.

AYKV

TAF not available.

Accessing this Service

By entering this site, you acknowledge that this information is produced solely for use by the aviation industry, and you are aware that any information for the purposes of flight planning should be obtained from Airservices Australia.